Terminal Aerodrome Forecast
Issued by NWS

Home | Current Version | Previous Version | Text Only | Print | Product List | Glossary On
Versions: 1 2 3 4 5 6 7 8 9 10 11 12 13 14 15 16 17
000
FTUS43 KUNR 250700 AAA
TAFGCC
TAF AMD
KGCC 250751Z 2508/2606 29007KT P6SM SCT120
     FM250900 31006KT P6SM BKN012
     FM251600 35009KT P6SM BKN035=

USA.gov is the U.S. government's official web portal to all federal, state and local government web resources and services.